sensor_id;sensor_type;location;lat;lon;timestamp;P1;durP1;ratioP1;P2;durP2;ratioP2
6023;SDS011;3040;42.654;23.296;2023-08-20T00:00:22;6.10;;;5.80;;
6023;SDS011;3040;42.654;23.296;2023-08-20T00:02:50;5.77;;;5.37;;
6023;SDS011;3040;42.654;23.296;2023-08-20T00:05:23;5.70;;;5.20;;
6023;SDS011;3040;42.654;23.296;2023-08-20T00:07:50;6.47;;;5.97;;
6023;SDS011;3040;42.654;23.296;2023-08-20T00:10:18;5.90;;;5.50;;
6023;SDS011;3040;42.654;23.296;2023-08-20T00:12:45;5.33;;;5.03;;
6023;SDS011;3040;42.654;23.296;2023-08-20T00:15:11;6.43;;;6.07;;
6023;SDS011;3040;42.654;23.296;2023-08-20T00:17:39;7.27;;;5.43;;
6023;SDS011;3040;42.654;23.296;2023-08-20T00:20:07;6.10;;;5.73;;
6023;SDS011;3040;42.654;23.296;2023-08-20T00:22:37;6.37;;;5.90;;
6023;SDS011;3040;42.654;23.296;2023-08-20T00:25:07;6.27;;;5.80;;
6023;SDS011;3040;42.654;23.296;2023-08-20T00:27:36;6.50;;;6.00;;
6023;SDS011;3040;42.654;23.296;2023-08-20T00:30:03;6.53;;;6.13;;
6023;SDS011;3040;42.654;23.296;2023-08-20T00:32:31;6.30;;;5.87;;
6023;SDS011;3040;42.654;23.296;2023-08-20T00:34:57;7.30;;;6.20;;
6023;SDS011;3040;42.654;23.296;2023-08-20T00:37:24;6.37;;;5.87;;
6023;SDS011;3040;42.654;23.296;2023-08-20T00:39:51;7.23;;;6.63;;
6023;SDS011;3040;42.654;23.296;2023-08-20T00:42:18;7.07;;;6.77;;
6023;SDS011;3040;42.654;23.296;2023-08-20T00:44:46;7.00;;;6.63;;
6023;SDS011;3040;42.654;23.296;2023-08-20T00:47:13;6.47;;;6.10;;
6023;SDS011;3040;42.654;23.296;2023-08-20T00:49:40;7.23;;;6.67;;
6023;SDS011;3040;42.654;23.296;2023-08-20T00:52:07;7.47;;;6.77;;
6023;SDS011;3040;42.654;23.296;2023-08-20T00:54:35;7.23;;;6.73;;
6023;SDS011;3040;42.654;23.296;2023-08-20T00:57:03;7.03;;;6.43;;
6023;SDS011;3040;42.654;23.296;2023-08-20T00:59:30;7.03;;;6.37;;
6023;SDS011;3040;42.654;23.296;2023-08-20T01:02:00;8.13;;;7.33;;
6023;SDS011;3040;42.654;23.296;2023-08-20T01:04:28;6.90;;;6.57;;
6023;SDS011;3040;42.654;23.296;2023-08-20T01:06:59;7.60;;;6.83;;
6023;SDS011;3040;42.654;23.296;2023-08-20T01:09:34;7.80;;;7.33;;
6023;SDS011;3040;42.654;23.296;2023-08-20T01:12:09;7.10;;;6.77;;
6023;SDS011;3040;42.654;23.296;2023-08-20T01:14:36;7.63;;;7.10;;
6023;SDS011;3040;42.654;23.296;2023-08-20T01:17:04;7.63;;;7.23;;
6023;SDS011;3040;42.654;23.296;2023-08-20T01:19:31;7.20;;;6.80;;
6023;SDS011;3040;42.654;23.296;2023-08-20T01:22:08;8.43;;;7.70;;
6023;SDS011;3040;42.654;23.296;2023-08-20T01:24:46;7.90;;;7.10;;
6023;SDS011;3040;42.654;23.296;2023-08-20T01:27:26;7.37;;;6.97;;
6023;SDS011;3040;42.654;23.296;2023-08-20T01:30:07;7.70;;;6.77;;
6023;SDS011;3040;42.654;23.296;2023-08-20T01:32:35;7.67;;;7.30;;
6023;SDS011;3040;42.654;23.296;2023-08-20T01:35:03;7.73;;;7.17;;
6023;SDS011;3040;42.654;23.296;2023-08-20T01:37:30;7.83;;;7.30;;
6023;SDS011;3040;42.654;23.296;2023-08-20T01:39:57;8.43;;;7.83;;
6023;SDS011;3040;42.654;23.296;2023-08-20T01:42:24;8.57;;;7.90;;
6023;SDS011;3040;42.654;23.296;2023-08-20T01:44:50;8.27;;;7.70;;
6023;SDS011;3040;42.654;23.296;2023-08-20T01:47:18;9.20;;;8.57;;
6023;SDS011;3040;42.654;23.296;2023-08-20T01:49:45;9.03;;;8.43;;
6023;SDS011;3040;42.654;23.296;2023-08-20T01:52:12;8.73;;;8.13;;
6023;SDS011;3040;42.654;23.296;2023-08-20T01:54:39;8.33;;;7.60;;
6023;SDS011;3040;42.654;23.296;2023-08-20T01:57:05;8.17;;;7.60;;
6023;SDS011;3040;42.654;23.296;2023-08-20T01:59:32;8.13;;;7.73;;
6023;SDS011;3040;42.654;23.296;2023-08-20T02:01:59;7.70;;;7.37;;
6023;SDS011;3040;42.654;23.296;2023-08-20T02:04:27;7.83;;;7.13;;
6023;SDS011;3040;42.654;23.296;2023-08-20T02:06:54;7.70;;;7.17;;
6023;SDS011;3040;42.654;23.296;2023-08-20T02:09:21;8.30;;;7.70;;
6023;SDS011;3040;42.654;23.296;2023-08-20T02:11:47;7.93;;;7.53;;
6023;SDS011;3040;42.654;23.296;2023-08-20T02:14:14;7.53;;;7.23;;
6023;SDS011;3040;42.654;23.296;2023-08-20T02:16:41;6.97;;;6.50;;
6023;SDS011;3040;42.654;23.296;2023-08-20T02:19:08;7.60;;;7.10;;
6023;SDS011;3040;42.654;23.296;2023-08-20T02:21:36;7.53;;;7.13;;
6023;SDS011;3040;42.654;23.296;2023-08-20T02:24:03;7.40;;;6.97;;
6023;SDS011;3040;42.654;23.296;2023-08-20T02:26:30;7.40;;;7.10;;
6023;SDS011;3040;42.654;23.296;2023-08-20T02:28:57;7.33;;;6.87;;
6023;SDS011;3040;42.654;23.296;2023-08-20T02:31:24;7.83;;;7.10;;
6023;SDS011;3040;42.654;23.296;2023-08-20T02:33:51;11.87;;;8.10;;
6023;SDS011;3040;42.654;23.296;2023-08-20T02:36:18;7.67;;;7.00;;
6023;SDS011;3040;42.654;23.296;2023-08-20T02:38:46;7.83;;;7.43;;
6023;SDS011;3040;42.654;23.296;2023-08-20T02:41:13;7.97;;;7.67;;
6023;SDS011;3040;42.654;23.296;2023-08-20T02:43:39;8.60;;;7.57;;
6023;SDS011;3040;42.654;23.296;2023-08-20T02:46:06;8.00;;;7.50;;
6023;SDS011;3040;42.654;23.296;2023-08-20T02:48:33;8.53;;;7.93;;
6023;SDS011;3040;42.654;23.296;2023-08-20T02:51:00;7.50;;;6.93;;
6023;SDS011;3040;42.654;23.296;2023-08-20T02:53:27;7.63;;;7.10;;
6023;SDS011;3040;42.654;23.296;2023-08-20T02:55:56;8.13;;;7.50;;
6023;SDS011;3040;42.654;23.296;2023-08-20T02:58:22;8.77;;;7.20;;
6023;SDS011;3040;42.654;23.296;2023-08-20T03:00:49;11.97;;;7.87;;
6023;SDS011;3040;42.654;23.296;2023-08-20T03:03:16;8.33;;;7.67;;
6023;SDS011;3040;42.654;23.296;2023-08-20T03:05:43;8.00;;;7.60;;
6023;SDS011;3040;42.654;23.296;2023-08-20T03:08:09;7.63;;;7.20;;
6023;SDS011;3040;42.654;23.296;2023-08-20T03:10:36;7.70;;;7.13;;
6023;SDS011;3040;42.654;23.296;2023-08-20T03:13:04;13.97;;;8.00;;
6023;SDS011;3040;42.654;23.296;2023-08-20T03:15:31;26.20;;;8.23;;
6023;SDS011;3040;42.654;23.296;2023-08-20T03:17:58;29.20;;;8.07;;
6023;SDS011;3040;42.654;23.296;2023-08-20T03:20:24;22.10;;;8.67;;
6023;SDS011;3040;42.654;23.296;2023-08-20T03:22:53;17.70;;;8.33;;
6023;SDS011;3040;42.654;23.296;2023-08-20T03:25:20;17.37;;;8.70;;
6023;SDS011;3040;42.654;23.296;2023-08-20T03:27:46;63.20;;;10.63;;
6023;SDS011;3040;42.654;23.296;2023-08-20T03:30:15;41.50;;;9.27;;
6023;SDS011;3040;42.654;23.296;2023-08-20T03:32:41;26.10;;;8.83;;
6023;SDS011;3040;42.654;23.296;2023-08-20T03:35:08;26.70;;;8.20;;
6023;SDS011;3040;42.654;23.296;2023-08-20T03:37:35;29.13;;;9.10;;
6023;SDS011;3040;42.654;23.296;2023-08-20T03:40:03;46.13;;;9.23;;
6023;SDS011;3040;42.654;23.296;2023-08-20T03:42:30;38.20;;;9.73;;
6023;SDS011;3040;42.654;23.296;2023-08-20T03:44:57;56.50;;;10.60;;
6023;SDS011;3040;42.654;23.296;2023-08-20T03:47:25;76.37;;;10.30;;
6023;SDS011;3040;42.654;23.296;2023-08-20T03:49:51;43.80;;;9.83;;
6023;SDS011;3040;42.654;23.296;2023-08-20T03:52:18;21.20;;;8.97;;
6023;SDS011;3040;42.654;23.296;2023-08-20T03:54:45;19.37;;;7.90;;
6023;SDS011;3040;42.654;23.296;2023-08-20T03:57:12;8.93;;;8.30;;
6023;SDS011;3040;42.654;23.296;2023-08-20T03:59:39;9.10;;;8.20;;
6023;SDS011;3040;42.654;23.296;2023-08-20T04:02:05;9.00;;;8.37;;
6023;SDS011;3040;42.654;23.296;2023-08-20T04:04:33;9.50;;;8.90;;
6023;SDS011;3040;42.654;23.296;2023-08-20T04:07:02;9.40;;;8.90;;
6023;SDS011;3040;42.654;23.296;2023-08-20T04:09:28;9.53;;;8.63;;
6023;SDS011;3040;42.654;23.296;2023-08-20T04:11:57;9.20;;;8.47;;
6023;SDS011;3040;42.654;23.296;2023-08-20T04:14:23;9.00;;;8.37;;
6023;SDS011;3040;42.654;23.296;2023-08-20T04:16:50;9.07;;;8.27;;
6023;SDS011;3040;42.654;23.296;2023-08-20T04:19:17;8.47;;;7.87;;
6023;SDS011;3040;42.654;23.296;2023-08-20T04:21:45;13.07;;;8.43;;
6023;SDS011;3040;42.654;23.296;2023-08-20T04:24:12;11.40;;;7.90;;
6023;SDS011;3040;42.654;23.296;2023-08-20T04:26:39;37.40;;;9.83;;
6023;SDS011;3040;42.654;23.296;2023-08-20T04:29:06;9.40;;;8.60;;
6023;SDS011;3040;42.654;23.296;2023-08-20T04:31:33;9.40;;;8.67;;
6023;SDS011;3040;42.654;23.296;2023-08-20T04:34:00;8.73;;;8.23;;
6023;SDS011;3040;42.654;23.296;2023-08-20T04:36:26;10.27;;;7.70;;
6023;SDS011;3040;42.654;23.296;2023-08-20T04:38:55;9.07;;;8.30;;
6023;SDS011;3040;42.654;23.296;2023-08-20T04:41:22;12.17;;;9.37;;
6023;SDS011;3040;42.654;23.296;2023-08-20T04:43:48;12.70;;;8.17;;
6023;SDS011;3040;42.654;23.296;2023-08-20T04:46:15;37.30;;;9.77;;
6023;SDS011;3040;42.654;23.296;2023-08-20T04:48:43;34.50;;;10.13;;
6023;SDS011;3040;42.654;23.296;2023-08-20T04:51:10;40.67;;;10.27;;
6023;SDS011;3040;42.654;23.296;2023-08-20T04:53:37;27.10;;;10.17;;
6023;SDS011;3040;42.654;23.296;2023-08-20T04:56:05;37.70;;;10.43;;
6023;SDS011;3040;42.654;23.296;2023-08-20T04:58:32;116.80;;;12.90;;
6023;SDS011;3040;42.654;23.296;2023-08-20T05:00:59;99.23;;;13.67;;
6023;SDS011;3040;42.654;23.296;2023-08-20T05:03:25;92.37;;;13.40;;
6023;SDS011;3040;42.654;23.296;2023-08-20T05:05:52;66.53;;;12.60;;
6023;SDS011;3040;42.654;23.296;2023-08-20T05:08:19;83.13;;;14.00;;
6023;SDS011;3040;42.654;23.296;2023-08-20T05:10:46;59.27;;;12.33;;
6023;SDS011;3040;42.654;23.296;2023-08-20T05:13:14;37.87;;;11.53;;
6023;SDS011;3040;42.654;23.296;2023-08-20T05:15:41;25.90;;;9.63;;
6023;SDS011;3040;42.654;23.296;2023-08-20T05:18:08;17.20;;;10.00;;
6023;SDS011;3040;42.654;23.296;2023-08-20T05:20:35;9.60;;;8.93;;
6023;SDS011;3040;42.654;23.296;2023-08-20T05:23:02;18.17;;;9.67;;
6023;SDS011;3040;42.654;23.296;2023-08-20T05:25:29;8.97;;;8.17;;
6023;SDS011;3040;42.654;23.296;2023-08-20T05:27:56;11.67;;;9.67;;
6023;SDS011;3040;42.654;23.296;2023-08-20T05:30:24;15.00;;;9.50;;
6023;SDS011;3040;42.654;23.296;2023-08-20T05:32:50;10.10;;;9.20;;
6023;SDS011;3040;42.654;23.296;2023-08-20T05:35:17;10.40;;;8.80;;
6023;SDS011;3040;42.654;23.296;2023-08-20T05:37:44;13.40;;;10.40;;
6023;SDS011;3040;42.654;23.296;2023-08-20T05:40:11;12.27;;;9.60;;
6023;SDS011;3040;42.654;23.296;2023-08-20T05:42:38;13.40;;;8.87;;
6023;SDS011;3040;42.654;23.296;2023-08-20T05:45:05;8.63;;;8.00;;
6023;SDS011;3040;42.654;23.296;2023-08-20T05:47:33;8.83;;;8.23;;
6023;SDS011;3040;42.654;23.296;2023-08-20T05:50:01;9.07;;;8.27;;
6023;SDS011;3040;42.654;23.296;2023-08-20T05:52:28;9.47;;;8.33;;
6023;SDS011;3040;42.654;23.296;2023-08-20T05:54:55;9.27;;;8.57;;
6023;SDS011;3040;42.654;23.296;2023-08-20T05:57:22;12.33;;;10.03;;
6023;SDS011;3040;42.654;23.296;2023-08-20T05:59:49;9.13;;;8.47;;
6023;SDS011;3040;42.654;23.296;2023-08-20T06:02:16;8.77;;;7.87;;
6023;SDS011;3040;42.654;23.296;2023-08-20T06:04:45;8.03;;;7.47;;
6023;SDS011;3040;42.654;23.296;2023-08-20T06:07:11;7.50;;;7.10;;
6023;SDS011;3040;42.654;23.296;2023-08-20T06:09:38;9.10;;;7.53;;
6023;SDS011;3040;42.654;23.296;2023-08-20T06:12:05;9.50;;;8.83;;
6023;SDS011;3040;42.654;23.296;2023-08-20T06:14:32;8.17;;;7.43;;
6023;SDS011;3040;42.654;23.296;2023-08-20T06:16:59;7.60;;;7.00;;
6023;SDS011;3040;42.654;23.296;2023-08-20T06:19:26;6.93;;;6.53;;
6023;SDS011;3040;42.654;23.296;2023-08-20T06:21:54;8.03;;;7.53;;
6023;SDS011;3040;42.654;23.296;2023-08-20T06:24:21;10.17;;;8.53;;
6023;SDS011;3040;42.654;23.296;2023-08-20T06:26:48;10.37;;;9.77;;
6023;SDS011;3040;42.654;23.296;2023-08-20T06:29:14;8.97;;;8.27;;
6023;SDS011;3040;42.654;23.296;2023-08-20T06:31:41;7.77;;;7.03;;
6023;SDS011;3040;42.654;23.296;2023-08-20T06:34:08;8.17;;;7.50;;
6023;SDS011;3040;42.654;23.296;2023-08-20T06:36:35;10.53;;;7.83;;
6023;SDS011;3040;42.654;23.296;2023-08-20T06:39:04;7.90;;;7.37;;
6023;SDS011;3040;42.654;23.296;2023-08-20T06:41:31;8.10;;;7.53;;
6023;SDS011;3040;42.654;23.296;2023-08-20T06:43:57;6.90;;;6.30;;
6023;SDS011;3040;42.654;23.296;2023-08-20T06:46:24;10.07;;;6.57;;
6023;SDS011;3040;42.654;23.296;2023-08-20T06:48:51;12.07;;;7.13;;
6023;SDS011;3040;42.654;23.296;2023-08-20T06:51:18;6.30;;;6.00;;
6023;SDS011;3040;42.654;23.296;2023-08-20T06:53:46;7.70;;;7.20;;
6023;SDS011;3040;42.654;23.296;2023-08-20T06:56:14;7.60;;;7.20;;
6023;SDS011;3040;42.654;23.296;2023-08-20T06:58:41;5.83;;;5.43;;
6023;SDS011;3040;42.654;23.296;2023-08-20T07:01:08;6.10;;;5.77;;
6023;SDS011;3040;42.654;23.296;2023-08-20T07:03:36;5.97;;;5.03;;
6023;SDS011;3040;42.654;23.296;2023-08-20T07:06:04;5.93;;;5.53;;
6023;SDS011;3040;42.654;23.296;2023-08-20T07:08:31;5.33;;;4.93;;
6023;SDS011;3040;42.654;23.296;2023-08-20T07:10:58;6.07;;;5.43;;
6023;SDS011;3040;42.654;23.296;2023-08-20T07:13:26;5.40;;;5.20;;
6023;SDS011;3040;42.654;23.296;2023-08-20T07:15:53;5.40;;;4.93;;
6023;SDS011;3040;42.654;23.296;2023-08-20T07:18:20;5.17;;;4.73;;
6023;SDS011;3040;42.654;23.296;2023-08-20T07:20:47;5.40;;;5.00;;
6023;SDS011;3040;42.654;23.296;2023-08-20T07:23:14;5.07;;;4.87;;
6023;SDS011;3040;42.654;23.296;2023-08-20T07:25:41;5.77;;;5.40;;
6023;SDS011;3040;42.654;23.296;2023-08-20T07:28:08;5.60;;;5.20;;
6023;SDS011;3040;42.654;23.296;2023-08-20T07:30:36;5.63;;;5.23;;
6023;SDS011;3040;42.654;23.296;2023-08-20T07:33:03;5.23;;;4.83;;
6023;SDS011;3040;42.654;23.296;2023-08-20T07:35:33;5.07;;;4.77;;
6023;SDS011;3040;42.654;23.296;2023-08-20T07:38:00;5.60;;;5.20;;
6023;SDS011;3040;42.654;23.296;2023-08-20T07:40:27;5.53;;;5.33;;
6023;SDS011;3040;42.654;23.296;2023-08-20T07:42:54;5.93;;;5.40;;
6023;SDS011;3040;42.654;23.296;2023-08-20T07:45:21;5.07;;;4.77;;
6023;SDS011;3040;42.654;23.296;2023-08-20T07:47:49;5.77;;;5.47;;
6023;SDS011;3040;42.654;23.296;2023-08-20T07:50:16;7.67;;;5.30;;
6023;SDS011;3040;42.654;23.296;2023-08-20T07:52:43;5.93;;;5.23;;
6023;SDS011;3040;42.654;23.296;2023-08-20T07:55:09;5.30;;;5.10;;
6023;SDS011;3040;42.654;23.296;2023-08-20T07:57:36;5.50;;;4.73;;
6023;SDS011;3040;42.654;23.296;2023-08-20T08:00:03;5.23;;;5.03;;
6023;SDS011;3040;42.654;23.296;2023-08-20T08:02:30;5.13;;;4.73;;
6023;SDS011;3040;42.654;23.296;2023-08-20T08:04:58;6.60;;;4.70;;
6023;SDS011;3040;42.654;23.296;2023-08-20T08:07:25;4.63;;;4.43;;
6023;SDS011;3040;42.654;23.296;2023-08-20T08:09:52;5.47;;;5.07;;
6023;SDS011;3040;42.654;23.296;2023-08-20T08:12:19;5.50;;;4.90;;
6023;SDS011;3040;42.654;23.296;2023-08-20T08:14:45;5.70;;;5.13;;
6023;SDS011;3040;42.654;23.296;2023-08-20T08:17:12;5.57;;;4.97;;
6023;SDS011;3040;42.654;23.296;2023-08-20T08:19:39;5.40;;;5.00;;
6023;SDS011;3040;42.654;23.296;2023-08-20T08:22:07;15.77;;;5.60;;
6023;SDS011;3040;42.654;23.296;2023-08-20T08:24:34;7.93;;;5.03;;
6023;SDS011;3040;42.654;23.296;2023-08-20T08:27:00;4.83;;;4.43;;
6023;SDS011;3040;42.654;23.296;2023-08-20T08:29:27;6.87;;;4.70;;
6023;SDS011;3040;42.654;23.296;2023-08-20T08:31:54;16.17;;;5.20;;
6023;SDS011;3040;42.654;23.296;2023-08-20T08:34:20;7.07;;;5.00;;
6023;SDS011;3040;42.654;23.296;2023-08-20T08:36:47;4.97;;;4.57;;
6023;SDS011;3040;42.654;23.296;2023-08-20T08:39:15;6.90;;;4.20;;
6023;SDS011;3040;42.654;23.296;2023-08-20T08:41:42;4.57;;;4.13;;
6023;SDS011;3040;42.654;23.296;2023-08-20T08:44:09;4.50;;;4.30;;
6023;SDS011;3040;42.654;23.296;2023-08-20T08:46:37;4.50;;;4.03;;
6023;SDS011;3040;42.654;23.296;2023-08-20T08:49:05;4.13;;;3.77;;
6023;SDS011;3040;42.654;23.296;2023-08-20T08:51:33;7.30;;;3.70;;
6023;SDS011;3040;42.654;23.296;2023-08-20T08:54:01;4.37;;;4.10;;
6023;SDS011;3040;42.654;23.296;2023-08-20T08:56:30;4.60;;;4.30;;
6023;SDS011;3040;42.654;23.296;2023-08-20T08:58:57;3.93;;;3.73;;
6023;SDS011;3040;42.654;23.296;2023-08-20T09:01:24;4.57;;;4.27;;
6023;SDS011;3040;42.654;23.296;2023-08-20T09:03:51;4.30;;;3.40;;
6023;SDS011;3040;42.654;23.296;2023-08-20T09:06:18;4.30;;;3.90;;
6023;SDS011;3040;42.654;23.296;2023-08-20T09:08:44;5.47;;;5.27;;
6023;SDS011;3040;42.654;23.296;2023-08-20T09:11:11;4.00;;;3.77;;
6023;SDS011;3040;42.654;23.296;2023-08-20T09:13:40;6.33;;;5.93;;
6023;SDS011;3040;42.654;23.296;2023-08-20T09:16:09;3.50;;;3.30;;
6023;SDS011;3040;42.654;23.296;2023-08-20T09:18:39;7.97;;;3.30;;
6023;SDS011;3040;42.654;23.296;2023-08-20T09:21:07;3.77;;;3.43;;
6023;SDS011;3040;42.654;23.296;2023-08-20T09:23:34;3.70;;;3.60;;
6023;SDS011;3040;42.654;23.296;2023-08-20T09:26:02;3.57;;;3.47;;
6023;SDS011;3040;42.654;23.296;2023-08-20T09:28:29;3.63;;;3.53;;
6023;SDS011;3040;42.654;23.296;2023-08-20T09:31:09;3.40;;;3.20;;
6023;SDS011;3040;42.654;23.296;2023-08-20T09:33:36;3.53;;;3.43;;
6023;SDS011;3040;42.654;23.296;2023-08-20T09:36:03;4.33;;;4.13;;
6023;SDS011;3040;42.654;23.296;2023-08-20T09:38:30;3.70;;;3.40;;
6023;SDS011;3040;42.654;23.296;2023-08-20T09:41:03;3.17;;;3.03;;
6023;SDS011;3040;42.654;23.296;2023-08-20T09:43:34;5.53;;;3.70;;
6023;SDS011;3040;42.654;23.296;2023-08-20T09:46:05;3.80;;;3.47;;
6023;SDS011;3040;42.654;23.296;2023-08-20T09:48:33;3.00;;;2.80;;
6023;SDS011;3040;42.654;23.296;2023-08-20T09:51:03;4.33;;;4.03;;
6023;SDS011;3040;42.654;23.296;2023-08-20T09:53:33;3.63;;;3.43;;
6023;SDS011;3040;42.654;23.296;2023-08-20T09:56:06;3.63;;;3.37;;
6023;SDS011;3040;42.654;23.296;2023-08-20T09:58:36;5.10;;;3.47;;
6023;SDS011;3040;42.654;23.296;2023-08-20T10:01:05;3.87;;;3.27;;
6023;SDS011;3040;42.654;23.296;2023-08-20T10:03:33;3.43;;;3.23;;
6023;SDS011;3040;42.654;23.296;2023-08-20T10:06:00;3.20;;;3.00;;
6023;SDS011;3040;42.654;23.296;2023-08-20T10:08:27;3.40;;;2.63;;
6023;SDS011;3040;42.654;23.296;2023-08-20T10:10:54;2.90;;;2.80;;
6023;SDS011;3040;42.654;23.296;2023-08-20T10:13:21;3.20;;;3.00;;
6023;SDS011;3040;42.654;23.296;2023-08-20T10:15:48;2.78;;;2.67;;
6023;SDS011;3040;42.654;23.296;2023-08-20T10:18:19;2.92;;;2.72;;
6023;SDS011;3040;42.654;23.296;2023-08-20T10:20:48;2.65;;;2.50;;
6023;SDS011;3040;42.654;23.296;2023-08-20T10:23:17;2.95;;;2.85;;
6023;SDS011;3040;42.654;23.296;2023-08-20T10:25:46;5.47;;;2.58;;
6023;SDS011;3040;42.654;23.296;2023-08-20T10:28:14;2.95;;;2.22;;
6023;SDS011;3040;42.654;23.296;2023-08-20T10:33:35;2.75;;;2.60;;
6023;SDS011;3040;42.654;23.296;2023-08-20T10:36:14;2.75;;;2.55;;
6023;SDS011;3040;42.654;23.296;2023-08-20T10:38:42;2.97;;;2.78;;
6023;SDS011;3040;42.654;23.296;2023-08-20T10:41:11;3.38;;;3.10;;
6023;SDS011;3040;42.654;23.296;2023-08-20T10:43:38;3.05;;;2.85;;
6023;SDS011;3040;42.654;23.296;2023-08-20T10:46:07;3.25;;;3.00;;
6023;SDS011;3040;42.654;23.296;2023-08-20T10:48:43;2.80;;;2.40;;
6023;SDS011;3040;42.654;23.296;2023-08-20T10:51:13;2.75;;;2.65;;
6023;SDS011;3040;42.654;23.296;2023-08-20T10:53:41;2.90;;;2.80;;
6023;SDS011;3040;42.654;23.296;2023-08-20T10:56:10;3.55;;;3.30;;
6023;SDS011;3040;42.654;23.296;2023-08-20T10:58:40;3.17;;;3.03;;
6023;SDS011;3040;42.654;23.296;2023-08-20T11:03:57;5.53;;;3.17;;
6023;SDS011;3040;42.654;23.296;2023-08-20T11:06:29;3.30;;;3.20;;
6023;SDS011;3040;42.654;23.296;2023-08-20T11:08:58;3.00;;;2.90;;
6023;SDS011;3040;42.654;23.296;2023-08-20T11:11:25;3.38;;;2.97;;
6023;SDS011;3040;42.654;23.296;2023-08-20T11:13:52;2.80;;;2.70;;
6023;SDS011;3040;42.654;23.296;2023-08-20T11:16:18;3.10;;;2.90;;
6023;SDS011;3040;42.654;23.296;2023-08-20T11:18:45;3.60;;;3.00;;
6023;SDS011;3040;42.654;23.296;2023-08-20T11:21:14;3.47;;;3.17;;
6023;SDS011;3040;42.654;23.296;2023-08-20T11:23:41;3.20;;;3.00;;
6023;SDS011;3040;42.654;23.296;2023-08-20T11:26:08;2.92;;;2.72;;
6023;SDS011;3040;42.654;23.296;2023-08-20T11:28:35;3.00;;;2.90;;
6023;SDS011;3040;42.654;23.296;2023-08-20T11:31:01;2.83;;;2.72;;
6023;SDS011;3040;42.654;23.296;2023-08-20T11:33:28;2.85;;;2.75;;
6023;SDS011;3040;42.654;23.296;2023-08-20T11:35:55;3.00;;;2.80;;
6023;SDS011;3040;42.654;23.296;2023-08-20T11:38:25;3.42;;;3.33;;
6023;SDS011;3040;42.654;23.296;2023-08-20T11:40:53;3.10;;;3.00;;
6023;SDS011;3040;42.654;23.296;2023-08-20T11:43:19;2.90;;;2.80;;
6023;SDS011;3040;42.654;23.296;2023-08-20T11:45:48;2.70;;;2.60;;
6023;SDS011;3040;42.654;23.296;2023-08-20T11:48:15;3.08;;;2.92;;
6023;SDS011;3040;42.654;23.296;2023-08-20T11:50:43;2.80;;;2.60;;
6023;SDS011;3040;42.654;23.296;2023-08-20T11:53:10;2.95;;;2.85;;
6023;SDS011;3040;42.654;23.296;2023-08-20T11:55:39;3.47;;;3.35;;
6023;SDS011;3040;42.654;23.296;2023-08-20T11:58:11;3.25;;;2.83;;
6023;SDS011;3040;42.654;23.296;2023-08-20T12:00:38;3.35;;;3.15;;
6023;SDS011;3040;42.654;23.296;2023-08-20T12:03:06;2.83;;;2.63;;
6023;SDS011;3040;42.654;23.296;2023-08-20T12:05:33;3.92;;;3.40;;
6023;SDS011;3040;42.654;23.296;2023-08-20T12:08:00;3.42;;;3.33;;
6023;SDS011;3040;42.654;23.296;2023-08-20T12:10:29;3.28;;;3.00;;
6023;SDS011;3040;42.654;23.296;2023-08-20T12:12:58;2.97;;;2.88;;
6023;SDS011;3040;42.654;23.296;2023-08-20T12:15:25;3.30;;;3.20;;
6023;SDS011;3040;42.654;23.296;2023-08-20T12:17:59;8.60;;;3.38;;
6023;SDS011;3040;42.654;23.296;2023-08-20T12:20:29;4.05;;;3.50;;
6023;SDS011;3040;42.654;23.296;2023-08-20T12:23:01;3.50;;;3.20;;
6023;SDS011;3040;42.654;23.296;2023-08-20T12:25:30;3.25;;;3.05;;
6023;SDS011;3040;42.654;23.296;2023-08-20T12:28:00;3.40;;;3.30;;
6023;SDS011;3040;42.654;23.296;2023-08-20T12:30:27;4.03;;;3.50;;
6023;SDS011;3040;42.654;23.296;2023-08-20T12:32:53;3.55;;;3.22;;
6023;SDS011;3040;42.654;23.296;2023-08-20T12:35:20;3.95;;;2.83;;
6023;SDS011;3040;42.654;23.296;2023-08-20T12:37:47;3.10;;;2.90;;
6023;SDS011;3040;42.654;23.296;2023-08-20T12:40:14;3.08;;;2.97;;
6023;SDS011;3040;42.654;23.296;2023-08-20T12:42:41;3.08;;;2.88;;
6023;SDS011;3040;42.654;23.296;2023-08-20T12:45:09;3.30;;;3.00;;
6023;SDS011;3040;42.654;23.296;2023-08-20T12:47:38;3.45;;;2.92;;
6023;SDS011;3040;42.654;23.296;2023-08-20T12:50:05;3.33;;;3.22;;
6023;SDS011;3040;42.654;23.296;2023-08-20T12:52:32;3.00;;;2.90;;
6023;SDS011;3040;42.654;23.296;2023-08-20T12:54:59;3.13;;;3.00;;
6023;SDS011;3040;42.654;23.296;2023-08-20T12:57:27;3.40;;;3.20;;
6023;SDS011;3040;42.654;23.296;2023-08-20T12:59:54;3.67;;;3.38;;
6023;SDS011;3040;42.654;23.296;2023-08-20T13:02:22;2.88;;;2.65;;
6023;SDS011;3040;42.654;23.296;2023-08-20T13:04:50;2.90;;;2.80;;
6023;SDS011;3040;42.654;23.296;2023-08-20T13:07:17;5.35;;;3.00;;
6023;SDS011;3040;42.654;23.296;2023-08-20T13:09:44;3.03;;;2.92;;
6023;SDS011;3040;42.654;23.296;2023-08-20T13:12:12;3.50;;;3.20;;
6023;SDS011;3040;42.654;23.296;2023-08-20T13:14:39;3.67;;;3.10;;
6023;SDS011;3040;42.654;23.296;2023-08-20T13:17:07;3.08;;;2.88;;
6023;SDS011;3040;42.654;23.296;2023-08-20T13:19:36;3.97;;;3.17;;
6023;SDS011;3040;42.654;23.296;2023-08-20T13:22:03;3.25;;;2.83;;
6023;SDS011;3040;42.654;23.296;2023-08-20T13:24:31;3.45;;;3.17;;
6023;SDS011;3040;42.654;23.296;2023-08-20T13:26:58;5.28;;;3.33;;
6023;SDS011;3040;42.654;23.296;2023-08-20T13:29:24;3.50;;;3.20;;
6023;SDS011;3040;42.654;23.296;2023-08-20T13:31:52;2.92;;;2.72;;
6023;SDS011;3040;42.654;23.296;2023-08-20T13:34:18;2.60;;;2.45;;
6023;SDS011;3040;42.654;23.296;2023-08-20T13:36:46;3.03;;;2.83;;
6023;SDS011;3040;42.654;23.296;2023-08-20T13:39:13;3.45;;;3.13;;
6023;SDS011;3040;42.654;23.296;2023-08-20T13:41:40;4.80;;;3.40;;
6023;SDS011;3040;42.654;23.296;2023-08-20T13:44:07;4.35;;;3.08;;
6023;SDS011;3040;42.654;23.296;2023-08-20T13:46:34;3.45;;;3.35;;
6023;SDS011;3040;42.654;23.296;2023-08-20T13:49:02;2.80;;;2.70;;
6023;SDS011;3040;42.654;23.296;2023-08-20T13:51:29;3.42;;;3.13;;
6023;SDS011;3040;42.654;23.296;2023-08-20T13:53:57;3.58;;;3.40;;
6023;SDS011;3040;42.654;23.296;2023-08-20T13:56:24;2.60;;;2.50;;
6023;SDS011;3040;42.654;23.296;2023-08-20T13:58:51;3.75;;;2.92;;
6023;SDS011;3040;42.654;23.296;2023-08-20T14:01:18;3.17;;;3.08;;
6023;SDS011;3040;42.654;23.296;2023-08-20T14:03:45;3.20;;;3.10;;
6023;SDS011;3040;42.654;23.296;2023-08-20T14:06:12;4.38;;;3.45;;
6023;SDS011;3040;42.654;23.296;2023-08-20T14:08:39;3.05;;;2.75;;
6023;SDS011;3040;42.654;23.296;2023-08-20T14:11:07;3.45;;;3.17;;
6023;SDS011;3040;42.654;23.296;2023-08-20T14:13:34;3.13;;;2.88;;
6023;SDS011;3040;42.654;23.296;2023-08-20T14:16:00;3.08;;;2.97;;
6023;SDS011;3040;42.654;23.296;2023-08-20T14:18:27;3.10;;;2.92;;
6023;SDS011;3040;42.654;23.296;2023-08-20T14:20:54;28.48;;;4.10;;
6023;SDS011;3040;42.654;23.296;2023-08-20T14:23:21;3.13;;;2.92;;
6023;SDS011;3040;42.654;23.296;2023-08-20T14:25:48;2.95;;;2.75;;
6023;SDS011;3040;42.654;23.296;2023-08-20T14:28:16;4.07;;;3.03;;
6023;SDS011;3040;42.654;23.296;2023-08-20T14:30:43;3.30;;;3.10;;
6023;SDS011;3040;42.654;23.296;2023-08-20T14:33:10;4.28;;;2.65;;
6023;SDS011;3040;42.654;23.296;2023-08-20T14:35:36;3.10;;;2.90;;
6023;SDS011;3040;42.654;23.296;2023-08-20T14:38:03;3.10;;;2.80;;
6023;SDS011;3040;42.654;23.296;2023-08-20T14:40:30;3.13;;;2.92;;
6023;SDS011;3040;42.654;23.296;2023-08-20T14:42:57;8.75;;;3.20;;
6023;SDS011;3040;42.654;23.296;2023-08-20T14:45:25;3.13;;;3.03;;
6023;SDS011;3040;42.654;23.296;2023-08-20T14:47:52;4.60;;;2.63;;
6023;SDS011;3040;42.654;23.296;2023-08-20T14:50:19;3.47;;;3.17;;
6023;SDS011;3040;42.654;23.296;2023-08-20T14:52:46;2.88;;;2.78;;
6023;SDS011;3040;42.654;23.296;2023-08-20T14:55:16;3.13;;;2.92;;
6023;SDS011;3040;42.654;23.296;2023-08-20T14:57:43;3.28;;;3.03;;
6023;SDS011;3040;42.654;23.296;2023-08-20T15:00:10;3.55;;;2.63;;
6023;SDS011;3040;42.654;23.296;2023-08-20T15:02:40;2.90;;;2.80;;
6023;SDS011;3040;42.654;23.296;2023-08-20T15:05:07;2.80;;;2.70;;